Time;durP1;ratioP1;P1;durP2;ratioP2;P2;SDS_P1;SDS_P2;PMS_P1;PMS_P2;Temp;Humidity;BMP_temperature;BMP_pressure;BME280_temperature;BME280_humidity;BME280_pressure;Samples;Min_cycle;Max_cycle;Signal;HPM_P1;HPM_P2
2022/12/25 00:00:40;;;;;;;72.05;23.67;;;4.80;99.90;;;;;;5003721;28;20042;-67
2022/12/25 00:03:06;;;;;;;70.90;23.73;;;4.70;99.90;;;;;;5003884;28;20151;-68
2022/12/25 00:05:32;;;;;;;78.32;23.70;;;4.70;99.90;;;;;;5004470;28;20165;-68
2022/12/25 00:07:58;;;;;;;70.43;24.73;;;4.90;99.90;;;;;;5004734;28;20599;-68
2022/12/25 00:10:24;;;;;;;59.80;22.98;;;4.90;99.90;;;;;;5004051;28;20038;-68
2022/12/25 00:12:50;;;;;;;51.97;21.50;;;4.90;99.90;;;;;;5005688;28;20046;-68
2022/12/25 00:15:16;;;;;;;62.13;23.83;;;4.90;99.90;;;;;;5007923;28;20073;-68
2022/12/25 00:17:42;;;;;;;68.72;25.60;;;4.80;99.90;;;;;;5008430;28;20048;-68
2022/12/25 00:20:08;;;;;;;66.40;24.50;;;4.80;99.90;;;;;;5007463;28;20650;-69
2022/12/25 00:22:34;;;;;;;65.22;23.50;;;4.80;99.90;;;;;;5019397;28;20041;-68
2022/12/25 00:24:59;;;;;;;62.53;24.25;;;4.70;99.90;;;;;;5008426;28;20041;-68
2022/12/25 00:27:25;;;;;;;65.95;24.88;;;4.80;99.90;;;;;;5008296;28;20551;-68
2022/12/25 00:29:50;;;;;;;58.13;24.33;;;4.60;99.90;;;;;;5007549;28;20380;-68
2022/12/25 00:32:16;;;;;;;75.53;23.85;;;4.80;99.90;;;;;;5008508;28;20437;-68
2022/12/25 00:34:42;;;;;;;66.03;24.30;;;4.80;99.90;;;;;;5008825;28;20077;-68
2022/12/25 00:37:07;;;;;;;65.70;24.42;;;4.90;99.90;;;;;;5009212;28;20056;-68
2022/12/25 00:39:33;;;;;;;63.70;24.63;;;5.00;99.90;;;;;;5007832;28;20459;-68
2022/12/25 00:44:43;;;;;;;73.75;24.75;;;4.90;99.90;;;;;;5006770;28;20792;-68
2022/12/25 00:47:09;;;;;;;66.50;25.25;;;4.60;99.90;;;;;;5007835;28;20140;-68
2022/12/25 00:49:34;;;;;;;54.65;23.67;;;4.80;99.90;;;;;;5006040;28;20164;-68
2022/12/25 00:52:00;;;;;;;82.45;26.42;;;4.90;99.90;;;;;;5008354;28;20045;-68
2022/12/25 00:54:26;;;;;;;57.63;24.65;;;4.80;99.90;;;;;;5008662;28;20053;-68
2022/12/25 00:56:52;;;;;;;74.35;26.80;;;4.90;99.90;;;;;;5007731;28;20093;-68
2022/12/25 00:59:18;;;;;;;61.47;25.23;;;4.60;99.90;;;;;;5007597;28;20587;-68
2022/12/25 01:01:43;;;;;;;65.07;24.77;;;4.70;99.90;;;;;;5008885;28;20065;-68
2022/12/25 01:04:10;;;;;;;71.07;26.13;;;4.90;99.90;;;;;;5008664;28;20513;-68
2022/12/25 01:06:36;;;;;;;59.25;24.27;;;5.00;99.90;;;;;;5009025;28;20475;-68
2022/12/25 01:11:46;;;;;;;69.70;26.67;;;4.70;99.90;;;;;;5008562;28;20048;-68
2022/12/25 01:14:11;;;;;;;73.68;25.25;;;4.80;99.90;;;;;;5007554;28;20042;-68
2022/12/25 01:16:37;;;;;;;71.05;26.55;;;5.00;99.90;;;;;;5007783;28;20046;-67
2022/12/25 01:19:03;;;;;;;67.78;25.48;;;4.90;99.90;;;;;;5008523;28;20077;-68
2022/12/25 01:21:29;;;;;;;59.83;25.38;;;4.80;99.90;;;;;;4996608;28;20498;-67
2022/12/25 01:23:55;;;;;;;64.93;25.13;;;4.70;99.90;;;;;;5011497;28;20046;-69
2022/12/25 01:26:22;;;;;;;75.25;27.77;;;4.70;99.90;;;;;;5008029;28;20072;-68
2022/12/25 01:28:49;;;;;;;76.78;28.05;;;4.90;99.90;;;;;;5006658;28;20042;-68
2022/12/25 01:31:16;;;;;;;71.82;27.67;;;4.50;99.90;;;;;;5006389;28;20057;-68
2022/12/25 01:33:44;;;;;;;68.25;24.70;;;4.80;99.90;;;;;;5007899;28;20026;-68
2022/12/25 01:36:24;;;;;;;64.05;23.85;;;4.70;99.90;;;;;;5008247;28;20143;-68
2022/12/25 01:38:51;;;;;;;71.28;25.75;;;4.50;99.90;;;;;;5007869;28;20041;-68
2022/12/25 01:41:19;;;;;;;65.22;25.17;;;4.80;99.90;;;;;;5006129;28;20085;-68
2022/12/25 01:43:57;;;;;;;65.85;25.83;;;4.80;99.90;;;;;;5005070;28;20515;-68
2022/12/25 01:46:23;;;;;;;62.17;24.50;;;4.80;99.90;;;;;;5007384;28;20460;-68
2022/12/25 01:48:49;;;;;;;60.45;23.77;;;4.70;99.90;;;;;;5022744;28;20045;-68
2022/12/25 01:51:27;;;;;;;69.90;25.65;;;4.50;99.90;;;;;;5006536;28;20049;-68
2022/12/25 01:53:56;;;;;;;51.50;20.55;;;4.90;99.90;;;;;;5022268;28;20115;-68
2022/12/25 01:56:21;;;;;;;75.38;25.70;;;4.50;99.90;;;;;;5006561;28;20085;-68
2022/12/25 01:58:47;;;;;;;62.70;24.75;;;4.80;99.90;;;;;;5006172;28;20092;-68
2022/12/25 02:01:13;;;;;;;53.83;20.23;;;4.70;99.90;;;;;;5006525;28;20511;-69
2022/12/25 02:03:41;;;;;;;58.95;24.75;;;4.80;99.90;;;;;;5007306;28;20052;-68
2022/12/25 02:06:07;;;;;;;59.83;22.92;;;4.70;99.90;;;;;;5005977;28;20072;-68
2022/12/25 02:08:33;;;;;;;58.20;23.08;;;4.60;99.90;;;;;;5005142;28;20050;-68
2022/12/25 02:10:59;;;;;;;60.05;23.75;;;4.80;99.90;;;;;;5022091;28;20389;-68
2022/12/25 02:13:25;;;;;;;64.72;25.05;;;4.70;99.90;;;;;;5006089;28;20046;-68
2022/12/25 02:16:08;;;;;;;52.95;21.02;;;4.70;99.90;;;;;;5006470;28;20056;-68
2022/12/25 02:18:44;;;;;;;58.35;21.40;;;4.90;99.90;;;;;;5006327;28;20042;-68
2022/12/25 02:21:13;;;;;;;56.45;23.75;;;5.00;99.90;;;;;;5010977;28;20045;-68
2022/12/25 02:23:48;;;;;;;60.60;24.02;;;5.00;99.90;;;;;;5013043;28;20052;-68
2022/12/25 02:26:48;;;;;;;60.17;22.95;;;4.80;99.90;;;;;;5005238;28;20054;-68
2022/12/25 02:29:24;;;;;;;56.15;21.10;;;4.90;99.90;;;;;;5006046;28;20092;-68
2022/12/25 02:32:00;;;;;;;59.92;22.35;;;5.20;99.90;;;;;;5005035;28;20046;-68
2022/12/25 02:34:35;;;;;;;49.05;19.48;;;5.00;99.90;;;;;;5006172;28;20085;-68
2022/12/25 02:37:10;;;;;;;;;;;5.10;99.90;;;;;;5005014;28;20108;-68
2022/12/25 02:40:05;;;;;;;53.30;23.05;;;5.30;99.90;;;;;;5007130;28;19925;-68
2022/12/25 03:08:50;;;;;;;66.22;24.15;;;5.70;99.90;;;;;;5005372;28;20064;-68
2022/12/25 03:11:31;;;;;;;62.22;23.35;;;5.60;99.90;;;;;;5005024;28;20057;-67
2022/12/25 03:16:54;;;;;;;52.55;21.13;;;5.90;99.90;;;;;;4967915;28;20061;-68
2022/12/25 03:27:59;;;;;;;52.90;21.52;;;6.20;99.90;;;;;;5004514;28;20053;-67
2022/12/25 03:31:11;;;;;;;56.33;21.90;;;6.20;99.90;;;;;;5005546;28;20050;-68
2022/12/25 03:35:21;;;;;;;61.70;22.35;;;6.10;99.90;;;;;;5004940;28;20046;-68
2022/12/25 03:50:48;;;;;;;48.67;19.40;;;6.00;99.90;;;;;;5008186;28;20049;-67
2022/12/25 04:37:50;;;;;;;49.35;20.55;;;6.70;99.90;;;;;;5009578;28;20112;-66
2022/12/25 04:40:16;;;;;;;54.58;21.05;;;6.60;99.90;;;;;;5009261;28;20046;-66
2022/12/25 04:42:41;;;;;;;49.00;19.48;;;6.50;99.90;;;;;;5006308;28;20050;-66
2022/12/25 04:45:08;;;;;;;44.22;19.02;;;6.30;99.90;;;;;;5009047;28;20133;-66
2022/12/25 04:47:33;;;;;;;43.35;20.00;;;6.50;99.90;;;;;;5007819;28;20050;-66
2022/12/25 04:49:59;;;;;;;48.15;20.55;;;6.60;99.90;;;;;;5008744;28;20046;-66
2022/12/25 04:52:25;;;;;;;43.35;19.00;;;6.40;99.90;;;;;;5008463;28;20077;-66
2022/12/25 04:54:50;;;;;;;46.15;18.98;;;6.50;99.90;;;;;;5009204;28;20133;-66
2022/12/25 04:57:16;;;;;;;45.65;19.83;;;6.50;99.90;;;;;;5008767;28;20054;-66
2022/12/25 04:59:42;;;;;;;57.50;22.13;;;6.50;99.90;;;;;;5006910;28;20038;-66
2022/12/25 05:02:07;;;;;;;44.03;16.52;;;6.90;99.90;;;;;;5008537;28;20054;-66
2022/12/25 05:04:33;;;;;;;49.05;22.17;;;6.70;99.90;;;;;;5007918;28;20485;-66
2022/12/25 05:06:59;;;;;;;49.53;21.50;;;7.00;99.90;;;;;;5007235;28;20049;-67
2022/12/25 05:09:25;;;;;;;48.50;19.58;;;6.60;99.90;;;;;;5008705;28;20573;-67
2022/12/25 05:11:51;;;;;;;51.05;21.23;;;7.00;99.90;;;;;;5008702;28;20398;-66
2022/12/25 05:14:16;;;;;;;51.58;22.05;;;6.90;99.90;;;;;;5007836;28;20041;-66
2022/12/25 05:16:42;;;;;;;45.58;17.98;;;6.70;99.90;;;;;;5007085;28;20104;-66
2022/12/25 05:19:08;;;;;;;45.55;20.45;;;6.80;99.90;;;;;;5008581;28;20042;-66
2022/12/25 05:21:33;;;;;;;49.45;20.80;;;7.00;99.90;;;;;;5015772;28;20396;-66
2022/12/25 05:23:59;;;;;;;52.78;22.65;;;7.20;99.90;;;;;;5011571;28;20044;-67
2022/12/25 05:26:25;;;;;;;58.88;26.02;;;7.10;99.90;;;;;;5008082;28;20113;-67
2022/12/25 05:28:52;;;;;;;46.55;21.63;;;6.80;99.90;;;;;;5006262;28;20088;-66
2022/12/25 05:31:18;;;;;;;64.97;25.42;;;7.00;99.90;;;;;;5008412;28;20508;-66
2022/12/25 05:33:44;;;;;;;60.72;24.88;;;7.10;99.90;;;;;;5007705;28;20132;-66
2022/12/25 05:36:11;;;;;;;49.92;23.77;;;7.00;99.90;;;;;;5008440;28;20130;-66
2022/12/25 05:38:37;;;;;;;62.03;25.50;;;7.00;99.90;;;;;;5008087;28;20092;-66
2022/12/25 05:41:04;;;;;;;59.97;26.15;;;7.00;99.90;;;;;;5007287;28;20038;-67
2022/12/25 05:43:29;;;;;;;50.80;21.88;;;7.10;99.90;;;;;;5007652;28;20448;-67
2022/12/25 05:45:55;;;;;;;53.15;22.08;;;6.90;99.90;;;;;;5008016;28;20145;-66
2022/12/25 05:48:21;;;;;;;64.63;25.05;;;7.00;99.90;;;;;;5007738;28;20050;-66
2022/12/25 05:50:46;;;;;;;48.08;21.65;;;7.00;99.90;;;;;;5006500;28;20074;-66
2022/12/25 05:53:14;;;;;;;49.95;21.55;;;6.90;99.90;;;;;;5006274;28;20046;-67
2022/12/25 05:55:42;;;;;;;64.85;24.60;;;7.10;99.90;;;;;;5007403;28;20050;-66
2022/12/25 05:58:09;;;;;;;49.55;16.92;;;7.30;99.90;;;;;;5007119;28;20440;-67
2022/12/25 06:00:35;;;;;;;53.33;18.65;;;7.00;99.90;;;;;;5007984;28;20420;-67
2022/12/25 06:03:01;;;;;;;52.15;20.42;;;7.10;99.90;;;;;;5009967;28;20054;-67
2022/12/25 06:05:26;;;;;;;68.97;22.42;;;7.40;99.90;;;;;;5026541;28;20076;-66
2022/12/25 06:07:52;;;;;;;49.03;22.15;;;7.20;99.90;;;;;;5027030;28;20098;-66
2022/12/25 06:10:18;;;;;;;61.33;20.45;;;7.50;99.90;;;;;;5027416;28;20045;-66
2022/12/25 06:12:43;;;;;;;60.92;23.92;;;7.40;99.90;;;;;;5026051;28;20044;-66
2022/12/25 06:15:09;;;;;;;48.10;19.85;;;7.50;99.90;;;;;;5027124;28;20053;-67
2022/12/25 06:17:35;;;;;;;62.58;24.35;;;7.50;99.90;;;;;;5025529;28;20045;-67
2022/12/25 06:20:01;;;;;;;54.55;21.48;;;7.30;99.90;;;;;;5024868;28;20046;-67
2022/12/25 06:22:31;;;;;;;58.17;22.88;;;7.20;99.90;;;;;;5018070;28;20408;-66
2022/12/25 06:24:57;;;;;;;60.83;23.20;;;7.20;99.90;;;;;;5006378;28;20764;-66
2022/12/25 06:27:23;;;;;;;62.50;22.60;;;7.40;99.90;;;;;;5006341;28;20151;-66
2022/12/25 06:29:49;;;;;;;89.50;27.15;;;7.50;99.90;;;;;;5006594;28;20085;-66
2022/12/25 06:32:15;;;;;;;57.13;20.65;;;7.50;99.90;;;;;;5007083;28;20240;-67
2022/12/25 06:34:40;;;;;;;74.20;25.88;;;7.30;99.90;;;;;;5006994;28;20049;-67
2022/12/25 06:37:06;;;;;;;72.03;23.42;;;7.30;99.90;;;;;;5006475;28;20440;-67
2022/12/25 06:39:32;;;;;;;78.53;25.42;;;7.60;99.90;;;;;;5006846;28;20504;-67
2022/12/25 06:41:57;;;;;;;83.50;28.90;;;7.50;99.90;;;;;;5007634;28;20504;-67
2022/12/25 06:44:23;;;;;;;85.13;30.92;;;7.30;99.90;;;;;;5006026;28;20041;-67
2022/12/25 06:46:50;;;;;;;74.95;29.33;;;7.60;99.90;;;;;;5006332;28;20033;-66
2022/12/25 06:49:16;;;;;;;75.68;30.00;;;7.60;99.90;;;;;;5005345;28;20069;-66
2022/12/25 06:51:42;;;;;;;72.28;29.05;;;7.60;99.90;;;;;;5005643;28;20833;-66
2022/12/25 06:54:08;;;;;;;74.85;28.55;;;7.40;99.90;;;;;;5005723;28;20725;-67
2022/12/25 06:56:33;;;;;;;77.90;30.05;;;7.40;99.90;;;;;;5006482;28;20613;-67
2022/12/25 06:59:05;;;;;;;62.63;27.67;;;7.70;99.90;;;;;;5006386;28;20050;-67
2022/12/25 07:01:35;;;;;;;71.25;29.60;;;7.70;99.90;;;;;;5004545;28;20107;-66
2022/12/25 07:04:05;;;;;;;54.17;22.30;;;7.80;99.90;;;;;;5006682;28;20116;-68
2022/12/25 07:06:30;;;;;;;64.00;25.40;;;7.50;99.90;;;;;;5006904;28;20104;-66
2022/12/25 07:08:56;;;;;;;75.93;28.70;;;7.70;99.90;;;;;;5006069;28;20054;-67
2022/12/25 07:11:22;;;;;;;66.70;28.50;;;7.50;99.90;;;;;;5006401;28;20049;-66
2022/12/25 07:13:48;;;;;;;63.65;27.60;;;7.60;99.90;;;;;;5005574;28;20046;-66
2022/12/25 07:16:14;;;;;;;65.57;26.88;;;7.50;99.90;;;;;;5004417;28;20189;-66
2022/12/25 07:18:41;;;;;;;55.38;24.42;;;7.60;99.90;;;;;;5006153;28;20548;-67
2022/12/25 07:21:12;;;;;;;45.58;19.67;;;7.80;99.90;;;;;;5009273;28;20492;-66
2022/12/25 07:23:38;;;;;;;46.95;19.50;;;7.70;99.90;;;;;;5012108;28;20050;-67
2022/12/25 07:26:04;;;;;;;61.85;25.73;;;7.60;99.90;;;;;;5006531;28;20133;-67
2022/12/25 07:28:30;;;;;;;65.90;28.27;;;8.00;99.90;;;;;;5004582;28;20047;-67
2022/12/25 07:31:22;;;;;;;69.72;29.17;;;7.60;99.90;;;;;;5006105;28;20050;-67
2022/12/25 07:33:51;;;;;;;60.40;27.92;;;7.60;99.90;;;;;;5003974;28;20085;-67
2022/12/25 07:36:16;;;;;;;58.38;26.55;;;7.70;99.90;;;;;;5005368;28;20057;-67
2022/12/25 07:38:43;;;;;;;69.38;30.02;;;7.60;99.90;;;;;;5003788;28;20057;-67
2022/12/25 07:41:11;;;;;;;56.88;24.63;;;7.80;99.90;;;;;;5006220;28;20042;-67
2022/12/25 07:43:37;;;;;;;57.13;24.75;;;8.00;99.90;;;;;;5005531;28;20473;-67
2022/12/25 07:46:03;;;;;;;57.92;27.73;;;8.00;99.90;;;;;;5005404;28;20134;-67
2022/12/25 07:48:30;;;;;;;64.15;29.08;;;7.60;99.90;;;;;;5004593;28;20696;-66
2022/12/25 07:51:01;;;;;;;58.38;25.95;;;8.00;99.90;;;;;;5004666;28;20053;-66
2022/12/25 07:53:27;;;;;;;61.78;28.23;;;8.00;99.90;;;;;;5005176;28;20496;-66
2022/12/25 07:56:00;;;;;;;72.65;29.13;;;7.60;99.90;;;;;;5003590;28;20046;-67
2022/12/25 07:58:27;;;;;;;60.08;28.38;;;8.00;99.90;;;;;;5004410;28;20034;-66
2022/12/25 08:00:53;;;;;;;64.35;29.00;;;7.80;99.90;;;;;;5004849;28;20042;-67
2022/12/25 08:03:19;;;;;;;58.75;25.08;;;7.60;99.90;;;;;;5004922;28;20064;-68
2022/12/25 08:05:45;;;;;;;48.53;23.92;;;7.90;99.90;;;;;;5005520;28;20168;-68
2022/12/25 08:08:11;;;;;;;55.05;26.98;;;7.90;99.90;;;;;;5003570;28;20395;-67
2022/12/25 08:10:37;;;;;;;53.05;23.98;;;8.00;99.90;;;;;;5005432;28;20038;-66
2022/12/25 08:13:03;;;;;;;54.35;26.73;;;8.10;99.90;;;;;;5004408;28;20531;-66
2022/12/25 08:15:29;;;;;;;46.85;21.52;;;7.70;99.90;;;;;;5005184;28;20077;-67
2022/12/25 08:17:55;;;;;;;46.03;25.45;;;7.70;99.90;;;;;;5004893;28;20041;-66
2022/12/25 08:20:21;;;;;;;59.33;25.63;;;7.80;99.90;;;;;;5006184;28;20427;-67
2022/12/25 08:22:46;;;;;;;55.75;26.50;;;8.00;99.90;;;;;;5014918;28;20050;-67
2022/12/25 08:25:14;;;;;;;50.22;24.40;;;7.90;99.90;;;;;;5005312;28;20041;-66
2022/12/25 08:27:40;;;;;;;47.78;23.58;;;8.00;99.90;;;;;;5004930;28;20398;-67
2022/12/25 08:30:06;;;;;;;36.22;14.95;;;8.20;99.90;;;;;;5005771;28;20052;-67
2022/12/25 08:32:32;;;;;;;38.53;17.77;;;7.70;99.90;;;;;;5005421;28;20088;-66
2022/12/25 08:34:58;;;;;;;42.58;20.40;;;7.80;99.90;;;;;;5008414;28;20046;-67
2022/12/25 08:37:23;;;;;;;33.70;18.08;;;8.10;99.90;;;;;;5009571;28;20041;-67
2022/12/25 08:39:49;;;;;;;27.95;14.70;;;7.70;99.90;;;;;;5008745;28;20088;-66
2022/12/25 08:42:15;;;;;;;39.20;21.75;;;8.00;99.90;;;;;;5007826;28;20497;-66
2022/12/25 08:44:41;;;;;;;30.85;16.60;;;7.70;99.90;;;;;;5008066;28;20094;-67
2022/12/25 08:47:06;;;;;;;34.65;18.05;;;7.70;99.90;;;;;;5009710;28;20037;-66
2022/12/25 08:49:32;;;;;;;34.28;16.50;;;8.00;99.90;;;;;;5007417;28;20049;-67
2022/12/25 08:51:58;;;;;;;29.40;17.90;;;7.70;99.90;;;;;;5008836;28;20103;-67
2022/12/25 08:54:24;;;;;;;35.78;18.80;;;8.20;99.90;;;;;;5008909;28;20045;-67
2022/12/25 08:56:49;;;;;;;40.97;20.20;;;7.70;99.90;;;;;;5007982;28;20103;-67
2022/12/25 08:59:15;;;;;;;39.20;20.35;;;7.70;99.90;;;;;;5008267;28;20401;-67
2022/12/25 09:01:41;;;;;;;40.33;19.58;;;7.90;99.90;;;;;;5008687;28;20050;-67
2022/12/25 09:04:06;;;;;;;44.13;22.33;;;7.80;99.90;;;;;;5009328;28;20139;-67
2022/12/25 09:06:32;;;;;;;35.90;19.38;;;8.20;99.90;;;;;;5007909;28;20537;-67
2022/12/25 09:08:58;;;;;;;40.88;20.80;;;8.10;99.90;;;;;;5007649;28;20230;-66
2022/12/25 09:11:24;;;;;;;39.58;20.58;;;8.20;99.90;;;;;;5007948;28;20520;-70
2022/12/25 09:13:49;;;;;;;38.63;19.52;;;7.70;99.90;;;;;;5006492;28;20069;-67
2022/12/25 09:16:18;;;;;;;40.30;19.55;;;8.20;99.90;;;;;;5008122;28;20056;-66
2022/12/25 09:18:44;;;;;;;34.63;19.33;;;8.20;99.90;;;;;;5008525;28;20049;-67
2022/12/25 09:21:12;;;;;;;35.47;18.17;;;8.30;99.90;;;;;;5011869;28;20042;-66
2022/12/25 09:23:38;;;;;;;38.53;20.38;;;8.20;99.90;;;;;;5014428;28;20045;-67
2022/12/25 09:26:06;;;;;;;35.70;20.80;;;8.20;99.90;;;;;;5006297;28;20481;-66
2022/12/25 09:28:32;;;;;;;38.38;20.17;;;8.30;99.90;;;;;;5007222;28;20124;-66
2022/12/25 09:30:59;;;;;;;34.25;18.45;;;8.00;99.90;;;;;;5007902;28;20132;-66
2022/12/25 09:33:25;;;;;;;33.85;19.25;;;7.80;99.90;;;;;;5008166;28;20042;-67
2022/12/25 09:35:57;;;;;;;32.03;18.85;;;8.30;99.90;;;;;;5007383;28;20064;-67
2022/12/25 09:38:23;;;;;;;39.42;19.90;;;8.30;99.90;;;;;;5006286;28;20053;-67
2022/12/25 09:41:01;;;;;;;32.85;18.60;;;8.30;99.90;;;;;;5007780;28;20042;-68
2022/12/25 09:43:29;;;;;;;33.88;17.20;;;8.30;99.90;;;;;;5006221;28;20201;-67
2022/12/25 09:45:56;;;;;;;35.85;18.42;;;7.90;99.90;;;;;;5005860;28;20050;-67
2022/12/25 09:48:23;;;;;;;28.75;16.67;;;8.30;99.90;;;;;;5006642;28;20053;-67
2022/12/25 09:50:57;;;;;;;35.60;18.42;;;7.90;99.90;;;;;;5007498;28;20076;-67
2022/12/25 09:53:29;;;;;;;32.75;17.05;;;7.90;99.90;;;;;;5007668;28;20077;-67
2022/12/25 09:56:01;;;;;;;32.08;17.65;;;8.10;99.90;;;;;;5007790;28;20125;-68
2022/12/25 09:58:28;;;;;;;31.17;17.40;;;7.80;99.90;;;;;;5006565;28;20100;-68
2022/12/25 10:01:19;;;;;;;35.20;18.33;;;7.90;99.90;;;;;;5007472;28;20041;-67
2022/12/25 10:03:44;;;;;;;32.80;18.33;;;8.30;99.90;;;;;;5005537;28;20050;-67
2022/12/25 10:06:18;;;;;;;34.83;19.10;;;7.80;99.90;;;;;;5007657;28;20133;-67
2022/12/25 10:09:02;;;;;;;32.58;18.98;;;8.20;99.90;;;;;;5005916;28;20596;-65
2022/12/25 10:11:53;;;;;;;35.28;19.73;;;8.20;99.90;;;;;;5006744;28;20092;-65
2022/12/25 10:14:21;;;;;;;31.85;17.67;;;7.90;99.90;;;;;;5005412;28;20050;-65
2022/12/25 10:16:50;;;;;;;34.75;19.65;;;7.80;99.90;;;;;;5007346;28;20045;-65
2022/12/25 10:19:44;;;;;;;34.65;20.80;;;8.20;99.90;;;;;;4989937;28;20049;-65
2022/12/25 10:22:20;;;;;;;31.50;18.92;;;7.70;99.90;;;;;;5018469;28;20049;-65
2022/12/25 10:24:50;;;;;;;27.60;18.65;;;8.00;99.90;;;;;;5007561;28;20037;-65
2022/12/25 10:27:38;;;;;;;34.60;20.42;;;7.80;99.90;;;;;;5006562;28;20049;-65
2022/12/25 10:30:24;;;;;;;34.17;19.58;;;8.30;99.90;;;;;;5007934;28;20431;-65
2022/12/25 10:32:51;;;;;;;45.47;25.23;;;8.00;99.90;;;;;;5007387;28;20432;-65
2022/12/25 10:35:23;;;;;;;43.28;27.67;;;7.80;99.90;;;;;;5007319;28;20042;-65
2022/12/25 10:38:13;;;;;;;33.08;21.48;;;8.20;99.90;;;;;;5006601;28;20400;-65
2022/12/25 10:40:55;;;;;;;38.95;21.45;;;7.90;99.90;;;;;;5002478;28;20057;-65
2022/12/25 10:43:28;;;;;;;38.83;22.30;;;8.40;99.90;;;;;;5006267;28;20534;-65
2022/12/25 10:45:54;;;;;;;30.23;19.38;;;8.20;99.90;;;;;;5006848;28;20042;-65
2022/12/25 10:48:24;;;;;;;25.98;17.27;;;7.90;99.90;;;;;;5006899;28;20051;-65
2022/12/25 10:50:50;;;;;;;31.42;18.75;;;7.90;99.90;;;;;;5007075;28;20409;-65
2022/12/25 10:53:24;;;;;;;27.88;17.38;;;7.90;99.90;;;;;;5006525;28;20456;-65
2022/12/25 10:55:57;;;;;;;27.98;16.55;;;8.00;99.90;;;;;;5005203;28;20068;-66
2022/12/25 10:58:23;;;;;;;22.17;15.60;;;8.10;99.90;;;;;;5005664;28;20441;-65
2022/12/25 11:01:06;;;;;;;25.25;16.00;;;8.30;99.90;;;;;;5006589;28;20641;-65
2022/12/25 11:03:34;;;;;;;31.92;16.48;;;8.10;99.90;;;;;;5006342;28;20458;-65
2022/12/25 11:06:01;;;;;;;27.35;16.15;;;7.90;99.90;;;;;;5006932;28;20100;-65
2022/12/25 11:08:29;;;;;;;26.15;15.00;;;8.20;99.90;;;;;;5006265;28;20386;-65
2022/12/25 11:11:06;;;;;;;24.42;15.07;;;8.00;99.90;;;;;;5005498;28;20472;-65
2022/12/25 11:13:45;;;;;;;24.65;13.98;;;8.10;99.90;;;;;;5003805;28;20056;-65
2022/12/25 11:16:30;;;;;;;24.00;13.85;;;8.20;99.90;;;;;;5006939;28;20052;-65
2022/12/25 11:18:57;;;;;;;29.77;14.65;;;8.60;99.90;;;;;;5006279;28;20378;-65
2022/12/25 11:21:27;;;;;;;25.98;13.40;;;8.10;99.90;;;;;;5012451;28;20384;-65
2022/12/25 11:24:01;;;;;;;27.52;14.20;;;8.40;99.90;;;;;;5011124;28;20045;-65
2022/12/25 11:26:28;;;;;;;23.25;11.07;;;8.20;99.90;;;;;;5005273;28;20046;-65
2022/12/25 11:28:55;;;;;;;23.15;13.57;;;8.60;99.90;;;;;;5006060;28;20049;-65
2022/12/25 11:31:39;;;;;;;21.60;13.77;;;8.50;99.90;;;;;;5006411;28;20049;-65
2022/12/25 11:34:34;;;;;;;26.13;15.18;;;8.20;99.90;;;;;;5004891;28;20132;-65
2022/12/25 11:37:01;;;;;;;22.25;14.57;;;8.40;99.90;;;;;;5004674;28;20496;-65
2022/12/25 11:39:31;;;;;;;19.75;12.10;;;8.30;99.90;;;;;;5006109;28;20460;-65
2022/12/25 11:42:03;;;;;;;21.25;13.77;;;8.80;99.90;;;;;;5004105;28;20077;-65
2022/12/25 11:44:50;;;;;;;23.98;13.88;;;8.40;99.90;;;;;;5005626;28;20124;-65
2022/12/25 11:47:23;;;;;;;25.90;13.25;;;8.90;99.90;;;;;;5006192;28;20097;-65
2022/12/25 11:50:19;;;;;;;22.92;14.48;;;8.60;99.90;;;;;;5005627;28;20049;-65
2022/12/25 11:52:47;;;;;;;26.23;14.85;;;8.80;99.90;;;;;;5005666;28;20057;-66
2022/12/25 11:55:41;;;;;;;22.60;14.48;;;8.40;99.90;;;;;;5006278;28;20701;-65
2022/12/25 11:58:45;;;;;;;20.75;13.30;;;8.50;99.90;;;;;;5004928;28;20425;-65
2022/12/25 12:01:25;;;;;;;21.70;14.35;;;8.40;99.90;;;;;;4993156;28;20061;-65
2022/12/25 12:03:51;;;;;;;23.27;13.75;;;8.90;99.90;;;;;;5005936;28;20052;-65
2022/12/25 12:06:29;;;;;;;25.63;14.70;;;8.60;99.90;;;;;;5006153;28;20125;-65
2022/12/25 12:09:23;;;;;;;22.73;14.07;;;8.40;99.90;;;;;;5007448;28;20128;-66
2022/12/25 12:12:17;;;;;;;21.92;14.20;;;8.80;99.90;;;;;;5007542;28;20053;-65
2022/12/25 12:14:49;;;;;;;23.00;12.55;;;8.90;99.90;;;;;;5008310;28;20492;-65
2022/12/25 12:17:17;;;;;;;20.70;11.80;;;8.40;99.90;;;;;;5009683;28;20046;-65
2022/12/25 12:19:43;;;;;;;21.75;12.15;;;8.60;99.90;;;;;;5009567;28;20053;-65
2022/12/25 12:22:22;;;;;;;17.52;10.80;;;8.90;99.90;;;;;;5020882;28;20045;-65
2022/12/25 12:24:55;;;;;;;17.13;9.27;;;8.90;99.90;;;;;;5008557;28;20504;-65
2022/12/25 12:27:39;;;;;;;20.42;11.60;;;8.80;99.90;;;;;;5008730;28;20482;-66
2022/12/25 12:30:21;;;;;;;19.67;12.67;;;8.50;99.90;;;;;;5009055;28;20049;-65
2022/12/25 12:32:52;;;;;;;21.77;12.65;;;8.60;99.90;;;;;;5009507;28;20095;-65
2022/12/25 12:35:22;;;;;;;20.70;12.25;;;8.50;99.90;;;;;;5009372;28;20427;-65
2022/12/25 12:37:54;;;;;;;23.75;13.52;;;8.50;99.90;;;;;;5009405;28;20065;-65
2022/12/25 12:40:39;;;;;;;21.17;11.63;;;8.40;99.90;;;;;;5009359;28;20045;-65
2022/12/25 12:43:21;;;;;;;19.33;9.95;;;8.50;99.90;;;;;;5008106;28;20053;-65
2022/12/25 12:45:57;;;;;;;21.17;11.63;;;8.50;99.90;;;;;;5009139;28;20038;-65
2022/12/25 12:48:26;;;;;;;22.10;11.73;;;8.90;99.90;;;;;;5008898;28;20084;-65
2022/12/25 12:51:04;;;;;;;17.30;10.48;;;8.90;99.90;;;;;;5008989;28;20088;-65
2022/12/25 12:53:31;;;;;;;20.52;12.13;;;8.40;99.90;;;;;;5009079;28;20452;-65
2022/12/25 12:56:11;;;;;;;24.38;12.77;;;8.90;99.90;;;;;;5008529;28;20385;-66
2022/12/25 12:58:43;;;;;;;18.25;12.48;;;8.40;99.90;;;;;;5007393;28;20042;-65
2022/12/25 13:01:17;;;;;;;18.88;10.15;;;8.50;99.90;;;;;;5008824;28;20099;-65
2022/12/25 13:04:05;;;;;;;17.45;10.55;;;8.90;99.90;;;;;;5008835;28;20081;-65
2022/12/25 13:06:46;;;;;;;19.63;10.65;;;8.60;99.90;;;;;;5007289;28;20064;-65
2022/12/25 13:09:47;;;;;;;17.58;8.73;;;8.90;99.90;;;;;;5007323;28;20340;-65
2022/12/25 13:12:15;;;;;;;21.33;11.45;;;8.60;99.90;;;;;;5007500;28;20057;-65
2022/12/25 13:14:48;;;;;;;17.88;10.00;;;8.40;99.90;;;;;;5008899;28;20060;-65
2022/12/25 13:17:20;;;;;;;39.58;20.67;;;8.50;99.90;;;;;;5008759;28;20493;-65
2022/12/25 13:19:55;;;;;;;23.75;12.38;;;8.50;99.90;;;;;;5007748;28;20041;-65
2022/12/25 13:22:30;;;;;;;14.20;8.48;;;8.90;99.90;;;;;;5017221;28;20063;-65
2022/12/25 13:25:05;;;;;;;15.05;9.63;;;8.80;99.90;;;;;;5027791;28;20052;-66
2022/12/25 13:27:32;;;;;;;20.23;12.00;;;8.40;99.90;;;;;;5027443;28;20045;-65
2022/12/25 13:29:58;;;;;;;23.20;11.35;;;8.80;99.90;;;;;;5028056;28;20064;-65
2022/12/25 13:32:32;;;;;;;20.85;10.73;;;8.40;99.90;;;;;;5027858;28;20439;-65
2022/12/25 13:34:59;;;;;;;18.13;12.47;;;8.60;99.90;;;;;;5026572;28;20049;-65
2022/12/25 13:37:27;;;;;;;16.42;10.73;;;8.30;99.90;;;;;;5027932;28;20715;-66
2022/12/25 13:40:03;;;;;;;16.88;10.93;;;8.60;99.90;;;;;;5028218;28;20056;-65
2022/12/25 13:42:33;;;;;;;15.98;9.48;;;8.40;99.90;;;;;;5027285;28;20053;-65
2022/12/25 13:45:17;;;;;;;16.88;10.98;;;8.80;99.90;;;;;;5027210;28;20468;-65
2022/12/25 13:47:44;;;;;;;21.17;11.07;;;8.30;99.90;;;;;;5027714;28;20043;-65
2022/12/25 13:50:25;;;;;;;16.80;10.25;;;8.40;99.90;;;;;;5027286;28;20276;-65
2022/12/25 13:52:52;;;;;;;16.15;9.85;;;8.30;99.90;;;;;;5027153;28;20495;-66
2022/12/25 13:55:29;;;;;;;21.13;10.32;;;8.30;99.90;;;;;;5026673;28;20103;-65
2022/12/25 13:57:58;;;;;;;20.58;12.10;;;8.30;99.90;;;;;;5027089;28;20125;-64
2022/12/25 14:00:25;;;;;;;19.05;10.18;;;8.60;99.90;;;;;;5027534;28;20045;-63
2022/12/25 14:02:52;;;;;;;21.75;11.70;;;8.90;99.90;;;;;;5018277;28;20058;-65
2022/12/25 14:05:33;;;;;;;17.83;9.13;;;8.70;99.90;;;;;;5011745;28;20054;-64
2022/12/25 14:08:02;;;;;;;19.35;11.25;;;8.80;99.90;;;;;;5011839;28;20033;-65
2022/12/25 14:10:37;;;;;;;17.70;10.70;;;8.80;99.90;;;;;;5010787;28;20381;-65
2022/12/25 14:13:13;;;;;;;14.38;8.90;;;8.70;99.90;;;;;;5011310;28;20382;-65
2022/12/25 14:15:40;;;;;;;15.73;8.02;;;8.50;99.90;;;;;;5010524;28;20484;-65
2022/12/25 14:18:13;;;;;;;8.27;5.35;;;8.70;99.90;;;;;;5011148;28;20125;-66
2022/12/25 14:21:02;;;;;;;14.82;9.20;;;8.40;99.90;;;;;;5011197;28;20596;-65
2022/12/25 14:23:46;;;;;;;14.57;9.23;;;8.70;99.90;;;;;;5011446;28;20041;-65
2022/12/25 14:26:37;;;;;;;20.77;11.75;;;8.40;99.90;;;;;;5010518;28;20128;-64
2022/12/25 14:29:07;;;;;;;17.70;9.77;;;8.40;99.90;;;;;;5011508;28;20068;-65
2022/12/25 14:31:37;;;;;;;15.48;9.77;;;8.30;99.90;;;;;;5009820;28;20121;-64
2022/12/25 14:34:06;;;;;;;16.67;8.93;;;8.30;99.90;;;;;;5011223;28;20033;-64
2022/12/25 14:36:33;;;;;;;15.45;7.70;;;8.60;99.90;;;;;;5011940;28;20380;-65